sensor_id;sensor_type;location;lat;lon;timestamp;pressure;altitude;pressure_sealevel;temperature;humidity
4981;BME280;2507;50.392;7.482;2024-01-15T00:00:32;99644.06;;;2.75;61.60
4981;BME280;2507;50.392;7.482;2024-01-15T00:02:58;99650.19;;;2.74;61.77
4981;BME280;2507;50.392;7.482;2024-01-15T00:05:23;99648.75;;;2.84;61.22
4981;BME280;2507;50.392;7.482;2024-01-15T00:07:48;99648.34;;;2.76;61.42
4981;BME280;2507;50.392;7.482;2024-01-15T00:10:13;99651.75;;;2.76;61.46
4981;BME280;2507;50.392;7.482;2024-01-15T00:12:39;99642.59;;;2.71;61.30
4981;BME280;2507;50.392;7.482;2024-01-15T00:15:04;99643.66;;;2.67;61.43
4981;BME280;2507;50.392;7.482;2024-01-15T00:17:30;99645.41;;;2.66;61.23
4981;BME280;2507;50.392;7.482;2024-01-15T00:19:55;99646.91;;;2.70;61.64
4981;BME280;2507;50.392;7.482;2024-01-15T00:22:20;99646.84;;;2.72;60.97
4981;BME280;2507;50.392;7.482;2024-01-15T00:24:46;99638.38;;;2.53;60.98
4981;BME280;2507;50.392;7.482;2024-01-15T00:27:11;99642.38;;;2.43;61.07
4981;BME280;2507;50.392;7.482;2024-01-15T00:29:36;99642.66;;;2.38;61.00
4981;BME280;2507;50.392;7.482;2024-01-15T00:32:01;99641.00;;;2.20;61.70
4981;BME280;2507;50.392;7.482;2024-01-15T00:34:27;99637.72;;;2.17;61.84
4981;BME280;2507;50.392;7.482;2024-01-15T00:36:52;99631.13;;;2.11;61.66
4981;BME280;2507;50.392;7.482;2024-01-15T00:39:17;99632.56;;;2.17;61.36
4981;BME280;2507;50.392;7.482;2024-01-15T00:41:42;99624.00;;;2.16;61.89
4981;BME280;2507;50.392;7.482;2024-01-15T00:44:08;99620.78;;;2.11;61.98
4981;BME280;2507;50.392;7.482;2024-01-15T00:46:33;99616.97;;;2.18;61.51
4981;BME280;2507;50.392;7.482;2024-01-15T00:48:58;99608.50;;;2.15;61.97
4981;BME280;2507;50.392;7.482;2024-01-15T00:51:23;99616.63;;;2.08;61.60
4981;BME280;2507;50.392;7.482;2024-01-15T00:53:49;99620.28;;;2.04;61.53
4981;BME280;2507;50.392;7.482;2024-01-15T00:56:14;99611.75;;;2.02;61.66
4981;BME280;2507;50.392;7.482;2024-01-15T00:58:39;99610.13;;;1.84;62.42
4981;BME280;2507;50.392;7.482;2024-01-15T01:01:04;99610.97;;;1.85;62.21
4981;BME280;2507;50.392;7.482;2024-01-15T01:03:30;99613.47;;;1.86;62.57
4981;BME280;2507;50.392;7.482;2024-01-15T01:05:55;99605.78;;;1.85;62.40
4981;BME280;2507;50.392;7.482;2024-01-15T01:08:20;99600.84;;;1.80;62.83
4981;BME280;2507;50.392;7.482;2024-01-15T01:10:45;99597.66;;;1.75;62.77
4981;BME280;2507;50.392;7.482;2024-01-15T01:13:11;99604.50;;;1.76;62.84
4981;BME280;2507;50.392;7.482;2024-01-15T01:15:36;99610.28;;;1.81;62.61
4981;BME280;2507;50.392;7.482;2024-01-15T01:18:02;99593.47;;;1.73;62.96
4981;BME280;2507;50.392;7.482;2024-01-15T01:20:28;99594.59;;;1.84;62.66
4981;BME280;2507;50.392;7.482;2024-01-15T01:22:53;99595.94;;;1.76;63.06
4981;BME280;2507;50.392;7.482;2024-01-15T01:25:18;99592.19;;;1.81;63.04
4981;BME280;2507;50.392;7.482;2024-01-15T01:27:44;99591.22;;;1.99;62.98
4981;BME280;2507;50.392;7.482;2024-01-15T01:30:09;99595.94;;;2.24;61.88
4981;BME280;2507;50.392;7.482;2024-01-15T01:32:34;99581.00;;;2.14;62.52
4981;BME280;2507;50.392;7.482;2024-01-15T01:35:00;99582.66;;;2.15;62.25
4981;BME280;2507;50.392;7.482;2024-01-15T01:37:26;99583.66;;;2.12;62.16
4981;BME280;2507;50.392;7.482;2024-01-15T01:39:51;99590.91;;;2.05;62.48
4981;BME280;2507;50.392;7.482;2024-01-15T01:42:16;99583.88;;;2.07;63.04
4981;BME280;2507;50.392;7.482;2024-01-15T01:44:41;99581.16;;;2.11;64.06
4981;BME280;2507;50.392;7.482;2024-01-15T01:47:07;99586.47;;;2.07;65.62
4981;BME280;2507;50.392;7.482;2024-01-15T01:49:33;99587.22;;;2.09;66.10
4981;BME280;2507;50.392;7.482;2024-01-15T01:52:01;99589.00;;;2.09;65.82
4981;BME280;2507;50.392;7.482;2024-01-15T01:54:31;99571.63;;;2.11;65.96
4981;BME280;2507;50.392;7.482;2024-01-15T01:56:57;99574.06;;;2.14;65.23
4981;BME280;2507;50.392;7.482;2024-01-15T01:59:23;99572.25;;;2.16;64.94
4981;BME280;2507;50.392;7.482;2024-01-15T02:01:50;99575.09;;;2.27;64.49
4981;BME280;2507;50.392;7.482;2024-01-15T02:04:17;99568.06;;;2.29;63.89
4981;BME280;2507;50.392;7.482;2024-01-15T02:06:42;99584.81;;;2.22;63.34
4981;BME280;2507;50.392;7.482;2024-01-15T02:09:08;99581.16;;;2.26;63.45
4981;BME280;2507;50.392;7.482;2024-01-15T02:11:33;99569.06;;;2.27;63.40
4981;BME280;2507;50.392;7.482;2024-01-15T02:13:58;99574.75;;;2.18;63.85
4981;BME280;2507;50.392;7.482;2024-01-15T02:16:24;99581.50;;;2.20;63.48
4981;BME280;2507;50.392;7.482;2024-01-15T02:18:49;99576.31;;;2.20;63.02
4981;BME280;2507;50.392;7.482;2024-01-15T02:21:15;99573.72;;;2.20;63.39
4981;BME280;2507;50.392;7.482;2024-01-15T02:23:41;99561.50;;;2.24;63.06
4981;BME280;2507;50.392;7.482;2024-01-15T02:26:06;99574.56;;;2.21;62.69
4981;BME280;2507;50.392;7.482;2024-01-15T02:28:33;99574.47;;;2.22;62.76
4981;BME280;2507;50.392;7.482;2024-01-15T02:30:58;99567.06;;;2.16;63.25
4981;BME280;2507;50.392;7.482;2024-01-15T02:33:23;99576.56;;;2.16;63.82
4981;BME280;2507;50.392;7.482;2024-01-15T02:35:48;99588.75;;;2.29;63.61
4981;BME280;2507;50.392;7.482;2024-01-15T02:38:17;99583.78;;;2.42;63.33
4981;BME280;2507;50.392;7.482;2024-01-15T02:40:43;99563.88;;;2.42;62.56
4981;BME280;2507;50.392;7.482;2024-01-15T02:43:09;99568.00;;;2.31;63.47
4981;BME280;2507;50.392;7.482;2024-01-15T02:45:34;99574.06;;;2.30;63.62
4981;BME280;2507;50.392;7.482;2024-01-15T02:47:59;99575.25;;;2.24;64.07
4981;BME280;2507;50.392;7.482;2024-01-15T02:50:24;99581.75;;;2.31;63.71
4981;BME280;2507;50.392;7.482;2024-01-15T02:52:50;99573.31;;;2.28;63.97
4981;BME280;2507;50.392;7.482;2024-01-15T02:55:15;99578.59;;;2.26;64.38
4981;BME280;2507;50.392;7.482;2024-01-15T02:57:40;99587.75;;;2.16;65.21
4981;BME280;2507;50.392;7.482;2024-01-15T03:00:06;99587.00;;;2.14;64.94
4981;BME280;2507;50.392;7.482;2024-01-15T03:02:32;99584.91;;;2.21;64.61
4981;BME280;2507;50.392;7.482;2024-01-15T03:04:58;99590.94;;;2.21;65.64
4981;BME280;2507;50.392;7.482;2024-01-15T03:07:23;99595.66;;;2.13;66.86
4981;BME280;2507;50.392;7.482;2024-01-15T03:09:48;99587.81;;;2.15;67.57
4981;BME280;2507;50.392;7.482;2024-01-15T03:12:13;99584.06;;;2.20;67.39
4981;BME280;2507;50.392;7.482;2024-01-15T03:14:38;99582.66;;;2.15;67.21
4981;BME280;2507;50.392;7.482;2024-01-15T03:17:04;99578.50;;;2.12;66.99
4981;BME280;2507;50.392;7.482;2024-01-15T03:19:29;99582.25;;;2.22;66.15
4981;BME280;2507;50.392;7.482;2024-01-15T03:21:56;99574.47;;;2.22;65.47
4981;BME280;2507;50.392;7.482;2024-01-15T03:24:21;99579.66;;;2.22;64.79
4981;BME280;2507;50.392;7.482;2024-01-15T03:26:46;99582.25;;;2.22;65.61
4981;BME280;2507;50.392;7.482;2024-01-15T03:29:11;99574.47;;;2.22;65.68
4981;BME280;2507;50.392;7.482;2024-01-15T03:31:37;99565.97;;;2.20;66.06
4981;BME280;2507;50.392;7.482;2024-01-15T03:34:02;99574.84;;;2.16;66.76
4981;BME280;2507;50.392;7.482;2024-01-15T03:36:28;99572.66;;;2.24;66.14
4981;BME280;2507;50.392;7.482;2024-01-15T03:38:53;99578.34;;;2.31;65.83
4981;BME280;2507;50.392;7.482;2024-01-15T03:41:19;99572.41;;;2.29;65.01
4981;BME280;2507;50.392;7.482;2024-01-15T03:43:44;99576.94;;;2.25;65.07
4981;BME280;2507;50.392;7.482;2024-01-15T03:46:09;99570.41;;;2.34;64.82
4981;BME280;2507;50.392;7.482;2024-01-15T03:48:34;99560.41;;;2.43;64.85
4981;BME280;2507;50.392;7.482;2024-01-15T03:51:00;99568.00;;;2.46;63.97
4981;BME280;2507;50.392;7.482;2024-01-15T03:53:25;99580.44;;;2.55;63.49
4981;BME280;2507;50.392;7.482;2024-01-15T03:55:50;99576.25;;;2.53;63.66
4981;BME280;2507;50.392;7.482;2024-01-15T03:58:16;99565.88;;;2.53;63.80
4981;BME280;2507;50.392;7.482;2024-01-15T04:00:42;99578.53;;;2.43;64.40
4981;BME280;2507;50.392;7.482;2024-01-15T04:03:07;99576.34;;;2.36;64.65
4981;BME280;2507;50.392;7.482;2024-01-15T04:05:32;99573.50;;;2.40;64.32
4981;BME280;2507;50.392;7.482;2024-01-15T04:07:58;99562.31;;;2.55;64.27
4981;BME280;2507;50.392;7.482;2024-01-15T04:10:23;99557.72;;;2.45;64.98
4981;BME280;2507;50.392;7.482;2024-01-15T04:12:48;99558.56;;;2.45;65.23
4981;BME280;2507;50.392;7.482;2024-01-15T04:15:14;99564.22;;;2.52;65.29
4981;BME280;2507;50.392;7.482;2024-01-15T04:17:39;99571.25;;;2.50;65.46
4981;BME280;2507;50.392;7.482;2024-01-15T04:20:04;99577.75;;;2.57;65.49
4981;BME280;2507;50.392;7.482;2024-01-15T04:22:30;99580.75;;;2.49;66.70
4981;BME280;2507;50.392;7.482;2024-01-15T04:24:55;99577.94;;;2.54;66.70
4981;BME280;2507;50.392;7.482;2024-01-15T04:27:21;99580.09;;;2.46;67.10
4981;BME280;2507;50.392;7.482;2024-01-15T04:29:46;99575.06;;;2.58;66.40
4981;BME280;2507;50.392;7.482;2024-01-15T04:32:11;99552.63;;;2.43;66.74
4981;BME280;2507;50.392;7.482;2024-01-15T04:34:37;99560.81;;;2.36;66.99
4981;BME280;2507;50.392;7.482;2024-01-15T04:37:02;99552.38;;;2.32;66.93
4981;BME280;2507;50.392;7.482;2024-01-15T04:39:27;99551.38;;;2.35;66.24
4981;BME280;2507;50.392;7.482;2024-01-15T04:41:53;99550.94;;;2.42;66.13
4981;BME280;2507;50.392;7.482;2024-01-15T04:44:18;99541.72;;;2.38;65.68
4981;BME280;2507;50.392;7.482;2024-01-15T04:46:43;99536.19;;;2.44;65.43
4981;BME280;2507;50.392;7.482;2024-01-15T04:49:09;99537.03;;;2.45;65.26
4981;BME280;2507;50.392;7.482;2024-01-15T04:51:34;99531.09;;;2.43;65.37
4981;BME280;2507;50.392;7.482;2024-01-15T04:54:00;99523.91;;;2.48;65.39
4981;BME280;2507;50.392;7.482;2024-01-15T04:56:26;99527.00;;;2.39;65.55
4981;BME280;2507;50.392;7.482;2024-01-15T04:58:51;99523.97;;;2.46;65.61
4981;BME280;2507;50.392;7.482;2024-01-15T05:01:16;99528.59;;;2.41;66.41
4981;BME280;2507;50.392;7.482;2024-01-15T05:03:42;99524.91;;;2.45;66.40
4981;BME280;2507;50.392;7.482;2024-01-15T05:06:07;99520.56;;;2.46;66.15
4981;BME280;2507;50.392;7.482;2024-01-15T05:08:33;99515.88;;;2.52;66.04
4981;BME280;2507;50.392;7.482;2024-01-15T05:10:58;99512.56;;;2.50;66.07
4981;BME280;2507;50.392;7.482;2024-01-15T05:13:23;99518.13;;;2.58;65.55
4981;BME280;2507;50.392;7.482;2024-01-15T05:15:48;99522.56;;;2.56;65.67
4981;BME280;2507;50.392;7.482;2024-01-15T05:18:14;99516.28;;;2.60;65.34
4981;BME280;2507;50.392;7.482;2024-01-15T05:20:39;99513.25;;;2.68;64.79
4981;BME280;2507;50.392;7.482;2024-01-15T05:23:04;99500.88;;;2.73;64.37
4981;BME280;2507;50.392;7.482;2024-01-15T05:25:29;99509.25;;;2.78;64.28
4981;BME280;2507;50.392;7.482;2024-01-15T05:27:55;99504.84;;;2.64;65.00
4981;BME280;2507;50.392;7.482;2024-01-15T05:30:20;99501.59;;;2.61;65.03
4981;BME280;2507;50.392;7.482;2024-01-15T05:32:45;99502.59;;;2.58;64.69
4981;BME280;2507;50.392;7.482;2024-01-15T05:35:10;99504.41;;;2.72;64.40
4981;BME280;2507;50.392;7.482;2024-01-15T05:37:36;99489.06;;;2.69;64.83
4981;BME280;2507;50.392;7.482;2024-01-15T05:40:01;99498.28;;;2.73;64.29
4981;BME280;2507;50.392;7.482;2024-01-15T05:42:26;99491.56;;;2.70;64.25
4981;BME280;2507;50.392;7.482;2024-01-15T05:44:51;99494.91;;;2.72;64.08
4981;BME280;2507;50.392;7.482;2024-01-15T05:47:17;99493.63;;;2.79;64.23
4981;BME280;2507;50.392;7.482;2024-01-15T05:49:42;99500.97;;;2.87;63.77
4981;BME280;2507;50.392;7.482;2024-01-15T05:52:08;99496.81;;;2.98;63.48
4981;BME280;2507;50.392;7.482;2024-01-15T05:54:33;99488.91;;;2.86;63.49
4981;BME280;2507;50.392;7.482;2024-01-15T05:56:58;99496.78;;;2.84;63.83
4981;BME280;2507;50.392;7.482;2024-01-15T05:59:23;99494.09;;;2.86;63.29
4981;BME280;2507;50.392;7.482;2024-01-15T06:01:49;99503.84;;;2.96;63.25
4981;BME280;2507;50.392;7.482;2024-01-15T06:04:14;99504.94;;;2.92;62.81
4981;BME280;2507;50.392;7.482;2024-01-15T06:06:39;99505.94;;;2.90;63.25
4981;BME280;2507;50.392;7.482;2024-01-15T06:09:05;99499.41;;;2.98;63.10
4981;BME280;2507;50.392;7.482;2024-01-15T06:11:31;99505.81;;;3.07;62.28
4981;BME280;2507;50.392;7.482;2024-01-15T06:13:57;99506.84;;;3.19;62.41
4981;BME280;2507;50.392;7.482;2024-01-15T06:16:23;99505.00;;;3.21;62.35
4981;BME280;2507;50.392;7.482;2024-01-15T06:18:48;99515.00;;;3.13;62.61
4981;BME280;2507;50.392;7.482;2024-01-15T06:21:14;99512.00;;;3.04;63.09
4981;BME280;2507;50.392;7.482;2024-01-15T06:23:39;99512.31;;;3.14;63.70
4981;BME280;2507;50.392;7.482;2024-01-15T06:26:05;99503.31;;;3.05;64.42
4981;BME280;2507;50.392;7.482;2024-01-15T06:28:30;99502.84;;;2.99;65.33
4981;BME280;2507;50.392;7.482;2024-01-15T06:30:57;99509.09;;;2.95;65.34
4981;BME280;2507;50.392;7.482;2024-01-15T06:33:23;99510.13;;;2.92;65.97
4981;BME280;2507;50.392;7.482;2024-01-15T06:35:48;99508.13;;;2.82;65.88
4981;BME280;2507;50.392;7.482;2024-01-15T06:38:14;99509.38;;;2.90;65.52
4981;BME280;2507;50.392;7.482;2024-01-15T06:40:39;99513.63;;;2.91;65.52
4981;BME280;2507;50.392;7.482;2024-01-15T06:43:10;99511.78;;;2.93;65.05
4981;BME280;2507;50.392;7.482;2024-01-15T06:45:35;99503.84;;;2.96;64.79
4981;BME280;2507;50.392;7.482;2024-01-15T06:48:01;99502.63;;;3.02;64.86
4981;BME280;2507;50.392;7.482;2024-01-15T06:50:26;99497.75;;;2.97;64.38
4981;BME280;2507;50.392;7.482;2024-01-15T06:52:51;99496.34;;;2.92;64.32
4981;BME280;2507;50.392;7.482;2024-01-15T06:55:16;99491.84;;;3.09;63.71
4981;BME280;2507;50.392;7.482;2024-01-15T06:57:42;99497.22;;;3.06;63.51
4981;BME280;2507;50.392;7.482;2024-01-15T07:00:08;99497.66;;;2.99;64.05
4981;BME280;2507;50.392;7.482;2024-01-15T07:02:33;99494.84;;;2.88;64.17
4981;BME280;2507;50.392;7.482;2024-01-15T07:04:59;99491.34;;;2.89;64.71
4981;BME280;2507;50.392;7.482;2024-01-15T07:07:24;99483.56;;;2.89;65.55
4981;BME280;2507;50.392;7.482;2024-01-15T07:09:50;99488.38;;;2.95;65.31
4981;BME280;2507;50.392;7.482;2024-01-15T07:12:17;99483.28;;;2.93;65.45
4981;BME280;2507;50.392;7.482;2024-01-15T07:14:42;99480.44;;;2.98;64.66
4981;BME280;2507;50.392;7.482;2024-01-15T07:17:08;99484.97;;;2.94;64.49
4981;BME280;2507;50.392;7.482;2024-01-15T07:19:33;99485.50;;;2.85;63.80
4981;BME280;2507;50.392;7.482;2024-01-15T07:21:58;99488.44;;;2.79;63.99
4981;BME280;2507;50.392;7.482;2024-01-15T07:24:23;99493.72;;;2.78;63.51
4981;BME280;2507;50.392;7.482;2024-01-15T07:26:49;99489.75;;;2.86;62.75
4981;BME280;2507;50.392;7.482;2024-01-15T07:29:14;99490.47;;;2.74;62.82
4981;BME280;2507;50.392;7.482;2024-01-15T07:31:39;99482.94;;;2.70;63.05
4981;BME280;2507;50.392;7.482;2024-01-15T07:34:04;99485.53;;;2.70;63.06
4981;BME280;2507;50.392;7.482;2024-01-15T07:36:30;99484.88;;;2.66;63.64
4981;BME280;2507;50.392;7.482;2024-01-15T07:38:55;99483.41;;;2.76;62.78
4981;BME280;2507;50.392;7.482;2024-01-15T07:41:20;99481.00;;;2.73;62.71
4981;BME280;2507;50.392;7.482;2024-01-15T07:43:45;99486.00;;;2.76;62.73
4981;BME280;2507;50.392;7.482;2024-01-15T07:46:11;99478.56;;;2.86;62.31
4981;BME280;2507;50.392;7.482;2024-01-15T07:48:36;99483.63;;;2.87;62.47
4981;BME280;2507;50.392;7.482;2024-01-15T07:51:01;99479.84;;;2.93;61.89
4981;BME280;2507;50.392;7.482;2024-01-15T07:53:27;99480.13;;;2.88;61.82
4981;BME280;2507;50.392;7.482;2024-01-15T07:55:53;99481.50;;;2.80;61.91
4981;BME280;2507;50.392;7.482;2024-01-15T07:58:18;99481.19;;;2.70;62.22
4981;BME280;2507;50.392;7.482;2024-01-15T08:00:43;99489.50;;;2.61;62.51
4981;BME280;2507;50.392;7.482;2024-01-15T08:03:09;99489.41;;;2.63;62.73
4981;BME280;2507;50.392;7.482;2024-01-15T08:05:34;99497.06;;;2.64;62.92
4981;BME280;2507;50.392;7.482;2024-01-15T08:08:00;99486.38;;;2.70;62.82
4981;BME280;2507;50.392;7.482;2024-01-15T08:10:25;99485.19;;;2.76;62.37
4981;BME280;2507;50.392;7.482;2024-01-15T08:12:50;99480.56;;;2.81;62.04
4981;BME280;2507;50.392;7.482;2024-01-15T08:15:15;99488.97;;;2.70;62.79
4981;BME280;2507;50.392;7.482;2024-01-15T08:17:42;99486.72;;;2.64;62.81
4981;BME280;2507;50.392;7.482;2024-01-15T08:20:07;99488.81;;;2.58;62.89
4981;BME280;2507;50.392;7.482;2024-01-15T08:22:33;99487.78;;;2.76;62.16
4981;BME280;2507;50.392;7.482;2024-01-15T08:24:58;99478.31;;;2.75;62.46
4981;BME280;2507;50.392;7.482;2024-01-15T08:27:24;99485.63;;;2.68;62.69
4981;BME280;2507;50.392;7.482;2024-01-15T08:29:49;99484.69;;;2.69;62.40
4981;BME280;2507;50.392;7.482;2024-01-15T08:32:14;99481.94;;;2.72;62.73
4981;BME280;2507;50.392;7.482;2024-01-15T08:34:40;99484.34;;;2.75;62.76
4981;BME280;2507;50.392;7.482;2024-01-15T08:37:06;99482.22;;;2.82;62.72
4981;BME280;2507;50.392;7.482;2024-01-15T08:39:31;99482.63;;;2.90;62.48
4981;BME280;2507;50.392;7.482;2024-01-15T08:41:57;99489.75;;;2.86;62.37
4981;BME280;2507;50.392;7.482;2024-01-15T08:44:22;99478.06;;;3.09;61.98
4981;BME280;2507;50.392;7.482;2024-01-15T08:46:47;99489.56;;;3.19;61.86
4981;BME280;2507;50.392;7.482;2024-01-15T08:49:12;99483.53;;;3.19;61.17
4981;BME280;2507;50.392;7.482;2024-01-15T08:51:37;99494.84;;;3.32;60.63
4981;BME280;2507;50.392;7.482;2024-01-15T08:54:04;99501.50;;;3.22;60.81
4981;BME280;2507;50.392;7.482;2024-01-15T08:56:29;99495.72;;;3.17;61.04
4981;BME280;2507;50.392;7.482;2024-01-15T08:58:54;99496.13;;;3.25;60.87
4981;BME280;2507;50.392;7.482;2024-01-15T09:01:20;99501.94;;;3.14;61.63
4981;BME280;2507;50.392;7.482;2024-01-15T09:03:45;99503.91;;;3.25;61.23
4981;BME280;2507;50.392;7.482;2024-01-15T09:06:11;99508.25;;;3.24;61.19
4981;BME280;2507;50.392;7.482;2024-01-15T09:08:37;99498.38;;;3.31;61.32
4981;BME280;2507;50.392;7.482;2024-01-15T09:11:02;99502.63;;;3.32;61.17
4981;BME280;2507;50.392;7.482;2024-01-15T09:13:28;99508.19;;;3.40;60.86
4981;BME280;2507;50.392;7.482;2024-01-15T09:15:54;99511.25;;;3.32;61.10
4981;BME280;2507;50.392;7.482;2024-01-15T09:18:19;99507.53;;;3.36;60.86
4981;BME280;2507;50.392;7.482;2024-01-15T09:20:44;99510.31;;;3.33;60.97
4981;BME280;2507;50.392;7.482;2024-01-15T09:23:09;99515.56;;;3.32;61.11
4981;BME280;2507;50.392;7.482;2024-01-15T09:25:35;99515.13;;;3.39;60.63
4981;BME280;2507;50.392;7.482;2024-01-15T09:28:00;99516.72;;;3.56;60.53
4981;BME280;2507;50.392;7.482;2024-01-15T09:30:25;99514.88;;;3.58;60.38
4981;BME280;2507;50.392;7.482;2024-01-15T09:32:50;99515.44;;;3.63;60.43
4981;BME280;2507;50.392;7.482;2024-01-15T09:35:16;99508.47;;;3.77;60.13
4981;BME280;2507;50.392;7.482;2024-01-15T09:37:41;99503.56;;;3.87;59.79
4981;BME280;2507;50.392;7.482;2024-01-15T09:40:08;99506.88;;;4.03;59.41
4981;BME280;2507;50.392;7.482;2024-01-15T09:42:36;99512.53;;;4.24;59.05
4981;BME280;2507;50.392;7.482;2024-01-15T09:45:02;99507.94;;;4.41;58.25
4981;BME280;2507;50.392;7.482;2024-01-15T09:47:28;99513.28;;;4.52;57.52
4981;BME280;2507;50.392;7.482;2024-01-15T09:49:54;99506.66;;;4.34;57.81
4981;BME280;2507;50.392;7.482;2024-01-15T09:52:21;99507.22;;;4.25;58.35
4981;BME280;2507;50.392;7.482;2024-01-15T09:54:47;99504.16;;;4.18;58.65
4981;BME280;2507;50.392;7.482;2024-01-15T09:57:13;99502.41;;;4.19;58.46
4981;BME280;2507;50.392;7.482;2024-01-15T09:59:40;99500.38;;;4.10;58.62
4981;BME280;2507;50.392;7.482;2024-01-15T10:02:08;99483.88;;;4.11;59.01
4981;BME280;2507;50.392;7.482;2024-01-15T10:04:34;99491.13;;;4.06;58.79
4981;BME280;2507;50.392;7.482;2024-01-15T10:07:00;99494.75;;;4.03;59.38
4981;BME280;2507;50.392;7.482;2024-01-15T10:09:26;99481.69;;;4.05;58.83
4981;BME280;2507;50.392;7.482;2024-01-15T10:11:51;99493.06;;;4.02;59.05
4981;BME280;2507;50.392;7.482;2024-01-15T10:14:17;99486.28;;;4.14;58.81
4981;BME280;2507;50.392;7.482;2024-01-15T10:16:42;99478.34;;;4.03;59.16
4981;BME280;2507;50.392;7.482;2024-01-15T10:19:08;99485.56;;;4.12;59.23
4981;BME280;2507;50.392;7.482;2024-01-15T10:21:35;99479.19;;;4.03;59.67
4981;BME280;2507;50.392;7.482;2024-01-15T10:24:01;99476.72;;;4.14;59.36
4981;BME280;2507;50.392;7.482;2024-01-15T10:26:28;99471.69;;;4.26;59.59
4981;BME280;2507;50.392;7.482;2024-01-15T10:28:53;99475.34;;;4.23;59.36
4981;BME280;2507;50.392;7.482;2024-01-15T10:31:18;99462.78;;;4.30;58.82
4981;BME280;2507;50.392;7.482;2024-01-15T10:33:48;99453.59;;;4.38;58.93
4981;BME280;2507;50.392;7.482;2024-01-15T10:36:14;99446.56;;;4.26;59.47
4981;BME280;2507;50.392;7.482;2024-01-15T10:38:42;99450.41;;;4.21;59.70
4981;BME280;2507;50.392;7.482;2024-01-15T10:41:07;99444.19;;;4.23;60.07
4981;BME280;2507;50.392;7.482;2024-01-15T10:43:34;99453.97;;;4.32;60.00
4981;BME280;2507;50.392;7.482;2024-01-15T10:45:59;99438.41;;;4.32;59.68
4981;BME280;2507;50.392;7.482;2024-01-15T10:48:25;99442.28;;;4.39;59.79
4981;BME280;2507;50.392;7.482;2024-01-15T10:50:51;99443.97;;;4.53;59.74
4981;BME280;2507;50.392;7.482;2024-01-15T10:53:17;99450.47;;;4.46;59.39
4981;BME280;2507;50.392;7.482;2024-01-15T10:55:43;99451.31;;;4.46;59.15
4981;BME280;2507;50.392;7.482;2024-01-15T10:58:09;99459.22;;;4.45;59.42
4981;BME280;2507;50.392;7.482;2024-01-15T11:00:38;99452.00;;;4.62;59.09
4981;BME280;2507;50.392;7.482;2024-01-15T11:03:05;99459.53;;;4.79;59.54
4981;BME280;2507;50.392;7.482;2024-01-15T11:05:37;99457.63;;;4.69;59.82
4981;BME280;2507;50.392;7.482;2024-01-15T11:08:06;99458.13;;;4.61;59.92
4981;BME280;2507;50.392;7.482;2024-01-15T11:10:45;99457.38;;;4.47;60.55
4981;BME280;2507;50.392;7.482;2024-01-15T11:13:19;99467.84;;;4.45;60.94
4981;BME280;2507;50.392;7.482;2024-01-15T11:16:15;99468.38;;;4.50;61.40
4981;BME280;2507;50.392;7.482;2024-01-15T11:18:42;99463.78;;;4.41;61.42
4981;BME280;2507;50.392;7.482;2024-01-15T11:23:56;99467.53;;;4.76;61.07
4981;BME280;2507;50.392;7.482;2024-01-15T11:29:01;99457.16;;;4.89;60.94
4981;BME280;2507;50.392;7.482;2024-01-15T11:34:07;99459.44;;;4.93;60.30
4981;BME280;2507;50.392;7.482;2024-01-15T11:42:03;99470.19;;;5.01;60.65
4981;BME280;2507;50.392;7.482;2024-01-15T11:44:30;99468.94;;;5.07;59.71
4981;BME280;2507;50.392;7.482;2024-01-15T11:47:03;99466.84;;;4.99;60.77
4981;BME280;2507;50.392;7.482;2024-01-15T11:49:53;99461.22;;;5.05;60.23
4981;BME280;2507;50.392;7.482;2024-01-15T11:52:22;99474.88;;;5.09;60.49
4981;BME280;2507;50.392;7.482;2024-01-15T11:54:55;99480.75;;;4.98;61.22
4981;BME280;2507;50.392;7.482;2024-01-15T11:57:52;99476.47;;;4.72;61.96
4981;BME280;2507;50.392;7.482;2024-01-15T12:00:19;99468.41;;;4.63;63.15
4981;BME280;2507;50.392;7.482;2024-01-15T12:02:46;99473.19;;;4.56;63.79
4981;BME280;2507;50.392;7.482;2024-01-15T12:05:13;99474.56;;;4.62;64.52
4981;BME280;2507;50.392;7.482;2024-01-15T12:07:40;99486.72;;;4.61;64.73
4981;BME280;2507;50.392;7.482;2024-01-15T12:10:13;99492.97;;;4.45;66.24
4981;BME280;2507;50.392;7.482;2024-01-15T12:15:19;99502.06;;;4.91;65.65
4981;BME280;2507;50.392;7.482;2024-01-15T12:17:45;99499.19;;;5.08;65.22
4981;BME280;2507;50.392;7.482;2024-01-15T12:20:10;99500.56;;;5.13;64.63
4981;BME280;2507;50.392;7.482;2024-01-15T12:22:36;99496.59;;;5.08;64.98
4981;BME280;2507;50.392;7.482;2024-01-15T12:25:01;99492.16;;;4.71;66.57
4981;BME280;2507;50.392;7.482;2024-01-15T12:27:27;99493.22;;;4.54;67.13
4981;BME280;2507;50.392;7.482;2024-01-15T12:29:53;99495.88;;;4.67;67.14
4981;BME280;2507;50.392;7.482;2024-01-15T12:32:18;99497.00;;;4.63;67.45
4981;BME280;2507;50.392;7.482;2024-01-15T12:34:44;99490.19;;;4.74;67.11
4981;BME280;2507;50.392;7.482;2024-01-15T12:37:09;99490.41;;;4.84;66.26
4981;BME280;2507;50.392;7.482;2024-01-15T12:39:35;99491.88;;;4.88;66.80
4981;BME280;2507;50.392;7.482;2024-01-15T12:42:02;99489.03;;;5.17;66.70
4981;BME280;2507;50.392;7.482;2024-01-15T12:44:28;99486.94;;;5.48;65.25
4981;BME280;2507;50.392;7.482;2024-01-15T12:46:53;99476.75;;;5.57;62.81
4981;BME280;2507;50.392;7.482;2024-01-15T12:49:18;99473.31;;;5.57;62.92
4981;BME280;2507;50.392;7.482;2024-01-15T12:51:52;99476.00;;;5.68;62.07
4981;BME280;2507;50.392;7.482;2024-01-15T12:54:17;99480.28;;;5.81;60.86
4981;BME280;2507;50.392;7.482;2024-01-15T12:56:43;99486.25;;;5.83;61.50
4981;BME280;2507;50.392;7.482;2024-01-15T12:59:08;99484.53;;;5.95;60.52
4981;BME280;2507;50.392;7.482;2024-01-15T13:01:33;99489.28;;;6.13;60.05
4981;BME280;2507;50.392;7.482;2024-01-15T13:04:01;99488.25;;;6.16;60.88
4981;BME280;2507;50.392;7.482;2024-01-15T13:06:26;99490.31;;;6.11;58.67
4981;BME280;2507;50.392;7.482;2024-01-15T13:08:51;99491.31;;;5.97;58.92
4981;BME280;2507;50.392;7.482;2024-01-15T13:11:16;99492.88;;;6.00;58.13
4981;BME280;2507;50.392;7.482;2024-01-15T13:13:43;99502.88;;;5.56;56.90
4981;BME280;2507;50.392;7.482;2024-01-15T13:16:08;99500.16;;;5.32;57.43
4981;BME280;2507;50.392;7.482;2024-01-15T13:18:34;99500.91;;;5.34;57.53
4981;BME280;2507;50.392;7.482;2024-01-15T13:20:59;99493.91;;;5.35;58.06
4981;BME280;2507;50.392;7.482;2024-01-15T13:23:25;99490.16;;;5.39;57.41
4981;BME280;2507;50.392;7.482;2024-01-15T13:25:50;99505.66;;;5.28;56.59
4981;BME280;2507;50.392;7.482;2024-01-15T13:28:15;99492.53;;;5.29;57.06
4981;BME280;2507;50.392;7.482;2024-01-15T13:30:41;99502.38;;;5.51;56.63
4981;BME280;2507;50.392;7.482;2024-01-15T13:33:07;99503.69;;;5.44;56.47
4981;BME280;2507;50.392;7.482;2024-01-15T13:35:33;99492.78;;;5.39;56.23
4981;BME280;2507;50.392;7.482;2024-01-15T13:38:00;99503.72;;;5.56;56.72
4981;BME280;2507;50.392;7.482;2024-01-15T13:40:26;99499.94;;;5.73;55.60